• Join FlightAware (Why Join?)
  • Login
  • US Flag 
11:59PM EDT


 

Airport Tracker/Info


-or-


 

Live Flight TrackerFlight Track Log ✈ AWE3418 ✈ 30-Apr-2013 ✈ KPHL - KMHT

Flight Track Log - Related Links

Times and Time Zones

All times are in EDT time to prevent confusion due to time zone crossing. See the AWE3418 flight status page for this flight to view local times or setup timezone preferences in your user account.

Time Position Orientation Groundspeed Altitude Reporting Facility
EDT Latitude Longitude Course Direction KTS MPH feet Rate Location/Type
07:11PM 39.8833 -75.2333 37° Northeast 139 160 700  Level Philadelphia TRACON
07:12PM 39.8667 -75.1667 108° East 205 236 2,700 2,400 Climbing Philadelphia TRACON
07:13PM 39.8500 -75.0667 102° East 256 295 6,100 2,880 Climbing Philadelphia TRACON
07:14PM 39.8537 -74.6297 37° Northeast  Level FlightAware Approximate
07:15PM 39.9593 -74.5407 37° Northeast  Level FlightAware Approximate
07:15PM 39.8192 -74.8764 102° East 292 336 11,600  Level New York Center
07:16PM 40.0615 -74.4385 37° Northeast  Level FlightAware Approximate
07:16PM 39.8244 -74.7767 86° East 306 352 13,300  Level New York Center
07:17PM 39.8903 -74.6856 47° Northeast 293 337 15,900 2,340 Climbing New York Center
07:18PM 39.9578 -74.5975 45° Northeast 317 365 18,100 2,340 Climbing New York Center
07:19PM 40.0317 -74.4983 46° Northeast 344 396 20,700 2,160 Climbing New York Center
07:20PM 40.1011 -74.4125 43° Northeast 357 411 22,400 1,860 Climbing New York Center
07:21PM 40.1828 -74.3300 38° Northeast 364 419 24,400 1,740 Climbing New York Center
07:22PM 40.2708 -74.2447 36° Northeast 374 430 26,000 1,560 Climbing New York Center
07:23PM 40.3567 -74.1592 37° Northeast 384 442 27,500 1,380 Climbing New York Center
07:24PM 40.4681 -74.1292 12° North 384 442 28,800 1,380 Climbing New York Center
07:25PM 40.5933 -74.1189 North 397 457 30,300 1,320 Climbing New York Center
07:26PM 40.7106 -74.1028 North 408 470 31,500 780 Climbing New York Center
07:29PM 40.9672 -74.0700 North 408 470 33,000 420 Climbing Boston Center
07:30PM 41.0783 -74.0344 14° North 408 470 33,000  Level Boston Center
07:31PM 41.1528 -73.9206 49° Northeast 381 438 33,000  Level Boston Center
07:32PM 41.2578 -73.8650 22° Northeast 386 444 33,000  Level Boston Center
07:33PM 41.3703 -73.8564 North 386 444 33,000  Level Boston Center
07:34PM 41.4828 -73.8533 North 391 450 33,000  Level Boston Center
07:35PM 41.5975 -73.8475 North 402 463 33,000  Level Boston Center
07:36PM 41.7103 -73.8444 North 402 463 33,000  Level Boston Center
07:37PM 41.8186 -73.8439 360° North 397 457 33,000 -180 Level Boston Center
07:38PM 41.9311 -73.8381 North 397 457 32,700 -600 Descending Boston Center
07:39PM 42.0250 -73.8375 360° North 402 463 31,900 -1,020 Descending Boston Center
07:40PM 42.1606 -73.8236 North 407 468 30,700 -1,080 Descending Boston Center
07:41PM 42.2533 -73.7358 35° Northeast 388 447 29,800 -1,020 Descending Boston Center
07:42PM 42.3092 -73.5911 62° Northeast 378 435 28,700 -1,020 Descending Boston Center
07:43PM 42.3583 -73.4628 63° Northeast 383 441 27,800 -1,020 Descending Boston Center
07:44PM 42.4117 -73.3175 64° Northeast 389 448 26,700 -1,080 Descending Boston Center
07:45PM 42.4625 -73.1831 63° Northeast 394 453 25,700 -1,020 Descending Boston Center
07:46PM 42.5092 -73.0625 62° Northeast 387 445 24,700 -1,320 Descending Boston Center
07:47PM 42.5578 -72.9333 63° Northeast 381 438 23,100 -1,800 Descending Boston Center
07:48PM 42.6083 -72.7983 63° Northeast 376 433 21,100 -2,040 Descending Boston Center
07:49PM 42.6522 -72.6772 64° Northeast 367 422 19,100 -1,980 Descending Boston Center
07:50PM 42.6942 -72.5672 63° Northeast 341 392 17,200 -1,980 Descending Boston Center
07:51PM 42.7358 -72.4542 63° Northeast 331 381 15,200 -2,040 Descending Boston Center
07:52PM 42.7756 -72.3439 64° Northeast 325 374 13,200 -1,920 Descending Boston Center
07:53PM 42.7983 -72.2392 73° East 319 367 11,400 -1,500 Descending Boston Center
07:54PM 42.8064 -72.1203 85° East 294 338 10,300 -960 Descending Boston Center
07:55PM 42.8247 -72.0297 75° East 276 318 9,500 -900 Descending Boston Center
07:56PM 42.8472 -71.9192 74° East 276 318 8,500 -900 Descending Boston Center
07:57PM 42.8761 -71.8367 64° Northeast 265 305 7,800 -900 Descending Boston Center
07:58PM 42.9214 -71.7425 57° Northeast 265 305 6,800 -900 Descending Boston Center
07:59PM 42.9647 -71.6711 50° Northeast 272 313 6,100 -1,980 Descending Boston Center
08:00PM 43.0331 -71.6078 34° Northeast 267 307 2,900 -1,800 Descending Boston Center
08:01PM 43.0744 -71.5561 42° Northeast 237 273 2,600 -240 Descending Boston Center
08:02PM 43.0406 -71.5025 131° Southeast 139 160 2,500 -120 Descending Boston Center